createdAt,value
2022-08-20T00:04:10.173Z,5.07
2022-08-20T00:09:15.717Z,4.88
2022-08-20T00:14:18.113Z,5.43
2022-08-20T00:19:20.490Z,5.25
2022-08-20T00:24:22.948Z,5.68
2022-08-20T00:29:25.346Z,5.15
2022-08-20T00:34:28.370Z,5.13
2022-08-20T00:39:30.726Z,4.45
2022-08-20T00:44:33.584Z,5.72
2022-08-20T00:49:36.027Z,4.63
2022-08-20T00:54:56.321Z,5.03
2022-08-20T01:00:00.171Z,5.30
2022-08-20T01:05:02.784Z,4.40
2022-08-20T01:10:10.681Z,5.22
2022-08-20T01:15:18.482Z,5.03
2022-08-20T01:20:25.595Z,4.88
2022-08-20T01:25:48.659Z,4.72
2022-08-20T01:30:51.302Z,5.28
2022-08-20T01:35:54.575Z,4.65
2022-08-20T01:41:28.308Z,5.50
2022-08-20T01:46:43.813Z,5.90
2022-08-20T01:51:46.838Z,5.22
2022-08-20T01:57:05.281Z,4.70
2022-08-20T02:02:08.175Z,4.68
2022-08-20T02:07:19.926Z,5.30
2022-08-20T02:12:22.326Z,5.22
2022-08-20T02:17:26.937Z,4.88
2022-08-20T02:22:32.163Z,4.60
2022-08-20T02:27:34.536Z,4.68
2022-08-20T02:32:36.994Z,5.10
2022-08-20T02:37:42.419Z,5.75
2022-08-20T02:42:44.950Z,5.75
2022-08-20T02:47:48.211Z,5.18
2022-08-20T02:52:51.920Z,5.43
2022-08-20T02:58:00.540Z,5.43
2022-08-20T03:08:07.805Z,5.72
2022-08-20T03:13:13.255Z,6.20
2022-08-20T03:18:17.115Z,6.28
2022-08-20T03:23:21.536Z,6.43
2022-08-20T03:28:24.499Z,5.55
2022-08-20T03:33:27.987Z,5.47
2022-08-20T03:38:33.064Z,6.78
2022-08-20T03:43:36.154Z,6.18
2022-08-20T03:48:40.481Z,6.32
2022-08-20T03:53:42.886Z,5.53
2022-08-20T03:58:45.319Z,5.97
2022-08-20T04:03:50.916Z,5.68
2022-08-20T04:08:56.676Z,5.20
2022-08-20T04:13:59.131Z,5.38
2022-08-20T04:19:02.695Z,5.40
2022-08-20T04:24:21.970Z,5.00
2022-08-20T04:29:32.280Z,5.63
2022-08-20T04:34:35.876Z,6.40
2022-08-20T04:39:38.399Z,5.95
2022-08-20T04:44:40.918Z,6.70
2022-08-20T04:49:43.371Z,6.40
2022-08-20T04:54:48.237Z,6.38
2022-08-20T04:59:55.539Z,6.32
2022-08-20T05:05:00.126Z,5.40
2022-08-20T05:10:05.703Z,5.72
2022-08-20T05:15:09.109Z,4.80
2022-08-20T05:20:17.246Z,4.88
2022-08-20T05:25:19.631Z,4.97
2022-08-20T05:30:22.075Z,4.38
2022-08-20T05:35:24.946Z,5.20
2022-08-20T05:40:27.845Z,4.20
2022-08-20T05:45:30.430Z,4.57
2022-08-20T05:50:33.786Z,4.75
2022-08-20T05:55:39.609Z,5.20
2022-08-20T06:00:42.319Z,4.38
2022-08-20T06:05:45.256Z,4.75
2022-08-20T06:10:47.980Z,5.10
2022-08-20T06:15:50.427Z,4.32
2022-08-20T06:20:58.818Z,4.82
2022-08-20T06:26:01.216Z,4.63
2022-08-20T06:31:04.265Z,4.55
2022-08-20T06:36:07.640Z,4.63
2022-08-20T06:41:10.047Z,4.80
2022-08-20T06:46:13.562Z,4.60
2022-08-20T06:56:41.046Z,4.30
2022-08-20T07:01:43.562Z,4.38
2022-08-20T07:06:45.971Z,4.57
2022-08-20T07:11:49.675Z,3.90
2022-08-20T07:16:52.082Z,4.43
2022-08-20T07:21:54.430Z,4.53
2022-08-20T07:26:56.934Z,5.45
2022-08-20T07:32:18.031Z,4.55
2022-08-20T07:37:24.917Z,4.57
2022-08-20T07:42:34.653Z,4.45
2022-08-20T07:47:42.351Z,4.93
2022-08-20T07:52:46.140Z,4.43
2022-08-20T07:57:50.724Z,4.47
2022-08-20T08:02:56.795Z,4.40
2022-08-20T08:07:59.692Z,4.90
2022-08-20T08:13:09.633Z,4.78
2022-08-20T08:18:17.063Z,4.47
2022-08-20T08:23:31.622Z,4.50
2022-08-20T08:28:34.546Z,4.72
2022-08-20T08:33:37.473Z,4.45
2022-08-20T08:38:44.789Z,4.43
2022-08-20T08:43:50.623Z,4.30
2022-08-20T08:48:57.046Z,4.18
2022-08-20T08:54:04.592Z,4.63
2022-08-20T08:59:12.159Z,4.78
2022-08-20T09:04:21.753Z,4.35
2022-08-20T09:09:34.498Z,4.95
2022-08-20T09:14:37.943Z,4.80
2022-08-20T09:19:40.485Z,4.93
2022-08-20T09:24:43.770Z,4.50
2022-08-20T09:29:47.029Z,4.40
2022-08-20T09:34:57.382Z,4.97
2022-08-20T09:40:00.926Z,4.03
2022-08-20T09:45:04.034Z,4.32
2022-08-20T09:50:13.238Z,4.57
2022-08-20T09:55:27.706Z,4.57
2022-08-20T10:00:30.101Z,4.28
2022-08-20T10:05:34.569Z,4.25
2022-08-20T10:10:37.357Z,5.38
2022-08-20T10:15:39.718Z,4.20
2022-08-20T10:20:44.340Z,4.75
2022-08-20T10:25:46.999Z,4.75
2022-08-20T10:30:49.425Z,5.18
2022-08-20T10:35:51.811Z,4.10
2022-08-20T10:40:57.385Z,4.13
2022-08-20T10:45:59.830Z,4.20
2022-08-20T10:51:02.418Z,4.10
2022-08-20T10:56:05.286Z,4.55
2022-08-20T11:01:08.709Z,4.03
2022-08-20T11:06:11.053Z,3.85
2022-08-20T11:11:15.206Z,4.15
2022-08-20T11:16:17.610Z,4.50
2022-08-20T11:21:19.981Z,4.40
2022-08-20T11:26:25.416Z,4.00
2022-08-20T11:31:27.874Z,4.45
2022-08-20T11:36:30.358Z,4.22
2022-08-20T11:41:32.700Z,4.22
2022-08-20T11:46:35.199Z,4.13
2022-08-20T11:51:39.943Z,4.90
2022-08-20T11:56:52.568Z,4.32
2022-08-20T12:02:02.845Z,4.78
2022-08-20T12:07:13.630Z,5.15
2022-08-20T12:12:16.981Z,4.57
2022-08-20T12:17:24.444Z,4.65
2022-08-20T12:22:27.272Z,4.38
2022-08-20T12:27:31.763Z,4.40
2022-08-20T12:32:34.732Z,4.70
2022-08-20T12:37:37.765Z,4.32
2022-08-20T12:42:40.375Z,4.13
2022-08-20T12:47:45.284Z,4.40
2022-08-20T12:52:48.750Z,4.50
2022-08-20T12:57:55.018Z,4.28
2022-08-20T13:02:59.717Z,4.13
2022-08-20T13:08:02.649Z,4.53
2022-08-20T13:13:05.341Z,4.15
2022-08-20T13:18:08.571Z,4.20
2022-08-20T13:23:11.159Z,4.30
2022-08-20T13:28:13.533Z,4.18
2022-08-20T13:33:16.298Z,4.47
2022-08-20T13:38:18.732Z,4.72
2022-08-20T13:43:21.198Z,4.30
2022-08-20T13:48:24.011Z,4.50
2022-08-20T13:53:27.366Z,4.30
2022-08-20T13:58:29.794Z,4.25
2022-08-20T14:03:33.096Z,4.13
2022-08-20T14:08:35.495Z,4.10
2022-08-20T14:13:37.874Z,4.10
2022-08-20T14:18:40.293Z,3.72
2022-08-20T14:23:44.530Z,4.15
2022-08-20T14:28:46.889Z,4.13
2022-08-20T14:33:49.297Z,4.03
2022-08-20T14:38:51.878Z,4.15
2022-08-20T14:43:54.354Z,3.75
2022-08-20T14:48:56.712Z,4.20
2022-08-20T14:53:59.095Z,4.43
2022-08-20T14:59:01.438Z,4.30
2022-08-20T15:04:04.148Z,4.20
2022-08-20T15:09:07.059Z,3.75
2022-08-20T15:14:09.542Z,3.67
2022-08-20T15:19:12.740Z,3.55
2022-08-20T15:24:19.333Z,4.32
2022-08-20T15:29:22.688Z,3.75
2022-08-20T15:34:25.898Z,3.90
2022-08-20T15:39:28.590Z,3.63
2022-08-20T15:44:31.715Z,3.53
2022-08-20T15:49:34.112Z,3.33
2022-08-20T15:54:37.024Z,4.07
2022-08-20T16:00:17.819Z,4.20
2022-08-20T16:05:27.840Z,3.67
2022-08-20T16:10:36.183Z,4.00
2022-08-20T16:15:46.288Z,4.30
2022-08-20T16:20:55.027Z,3.70
2022-08-20T16:26:09.112Z,4.03
2022-08-20T16:31:15.403Z,4.13
2022-08-20T16:36:30.265Z,4.13
2022-08-20T16:41:46.911Z,3.85
2022-08-20T16:46:58.818Z,3.90
2022-08-20T16:52:02.089Z,3.88
2022-08-20T16:57:06.879Z,4.45
2022-08-20T17:02:14.898Z,4.00
2022-08-20T17:07:31.066Z,4.00
2022-08-20T17:12:36.144Z,4.25
2022-08-20T17:17:38.509Z,4.03
2022-08-20T17:22:47.897Z,4.03
2022-08-20T17:27:50.413Z,4.10
2022-08-20T17:32:58.427Z,3.75
2022-08-20T17:38:02.828Z,4.28
2022-08-20T17:43:09.093Z,4.28
2022-08-20T17:48:17.572Z,3.72
2022-08-20T17:53:25.017Z,4.35
2022-08-20T17:59:10.514Z,4.47
2022-08-20T18:04:13.158Z,5.32
2022-08-20T18:09:24.292Z,4.45
2022-08-20T18:14:29.482Z,4.03
2022-08-20T18:19:49.573Z,4.90
2022-08-20T18:25:17.885Z,4.75
2022-08-20T18:30:23.594Z,3.83
2022-08-20T18:35:52.022Z,5.18
2022-08-20T18:41:05.312Z,3.85
2022-08-20T18:46:21.547Z,4.55
2022-08-20T18:51:30.674Z,4.40
2022-08-20T18:56:40.748Z,4.82
2022-08-20T19:01:43.629Z,4.95
2022-08-20T19:06:57.468Z,4.40
2022-08-20T19:12:09.572Z,4.53
2022-08-20T19:17:35.874Z,4.47
2022-08-20T19:22:40.482Z,4.45
2022-08-20T19:27:42.883Z,4.82
2022-08-20T19:32:53.367Z,4.85
2022-08-20T19:37:55.950Z,5.13
2022-08-20T19:43:02.818Z,4.95
2022-08-20T19:48:42.047Z,5.53
2022-08-20T19:53:49.346Z,5.63
2022-08-20T19:59:06.404Z,5.20
2022-08-20T20:04:17.754Z,4.53
2022-08-20T20:09:25.835Z,4.35
2022-08-20T20:14:33.884Z,4.53
2022-08-20T20:19:57.278Z,4.85
2022-08-20T20:25:22.467Z,4.50
2022-08-20T20:30:32.149Z,4.00
2022-08-20T20:35:38.087Z,4.55
2022-08-20T20:40:53.617Z,4.78
2022-08-20T20:46:04.815Z,4.25
2022-08-20T20:51:15.998Z,4.15
2022-08-20T20:56:32.451Z,4.32
2022-08-20T21:01:49.001Z,4.38
2022-08-20T21:06:55.938Z,4.32
2022-08-20T21:11:58.371Z,4.30
2022-08-20T21:17:03.058Z,4.97
2022-08-20T21:22:05.518Z,4.53
2022-08-20T21:27:12.697Z,4.15
2022-08-20T21:32:16.863Z,4.30
2022-08-20T21:37:19.463Z,4.70
2022-08-20T21:42:28.379Z,4.65
2022-08-20T21:47:32.231Z,5.40
2022-08-20T21:52:35.468Z,4.82
2022-08-20T21:57:42.497Z,4.82
2022-08-20T22:02:45.047Z,4.65
2022-08-20T22:07:47.429Z,4.90
2022-08-20T22:12:49.806Z,4.75
2022-08-20T22:17:52.576Z,4.75
2022-08-20T22:22:55.198Z,4.78
2022-08-20T22:27:57.622Z,4.25
2022-08-20T22:33:04.415Z,4.78
2022-08-20T22:38:06.935Z,4.28
2022-08-20T22:43:09.401Z,4.63
2022-08-20T22:48:15.296Z,4.68
2022-08-20T22:53:19.836Z,4.97
2022-08-20T22:58:30.365Z,4.97
2022-08-20T23:03:40.199Z,5.00
2022-08-20T23:08:42.944Z,4.57
2022-08-20T23:13:45.386Z,4.97
2022-08-20T23:18:48.011Z,4.93
2022-08-20T23:23:50.940Z,4.72
2022-08-20T23:28:53.282Z,4.78
2022-08-20T23:33:55.628Z,4.70
2022-08-20T23:38:58.167Z,5.18
2022-08-20T23:44:00.567Z,5.25
2022-08-20T23:49:03.041Z,4.35
2022-08-20T23:54:05.514Z,4.97
2022-08-20T23:59:08.029Z,5.70
